createdAt,value
2019-03-23T00:01:56.848Z,5.00
2019-03-23T00:04:03.414Z,4.99
2019-03-23T00:06:09.759Z,4.95
2019-03-23T00:08:17.715Z,4.96
2019-03-23T00:10:24.150Z,4.95
2019-03-23T00:12:30.501Z,4.93
2019-03-23T00:14:37.163Z,4.92
2019-03-23T00:16:43.551Z,4.89
2019-03-23T00:18:52.658Z,4.89
2019-03-23T00:21:00.036Z,4.88
2019-03-23T00:23:06.628Z,4.90
2019-03-23T00:25:14.285Z,4.90
2019-03-23T00:27:21.078Z,4.89
2019-03-23T00:29:27.657Z,4.89
2019-03-23T00:31:36.163Z,4.86
2019-03-23T00:33:42.939Z,4.82
2019-03-23T00:35:49.603Z,4.79
2019-03-23T00:37:56.073Z,4.74
2019-03-23T00:40:02.450Z,4.69
2019-03-23T00:42:09.229Z,4.64
2019-03-23T00:44:15.786Z,4.58
2019-03-23T00:46:22.266Z,4.55
2019-03-23T00:48:30.340Z,4.53
2019-03-23T00:50:36.967Z,4.54
2019-03-23T00:52:43.788Z,4.52
2019-03-23T00:54:50.141Z,4.52
2019-03-23T00:56:56.523Z,4.50
2019-03-23T00:59:04.614Z,4.46
2019-03-23T01:01:12.422Z,4.44
2019-03-23T01:03:20.712Z,4.43
2019-03-23T01:05:28.729Z,4.42
2019-03-23T01:07:35.091Z,4.42
2019-03-23T01:09:41.644Z,4.42
2019-03-23T01:11:48.004Z,4.41
2019-03-23T01:13:55.805Z,4.40
2019-03-23T01:16:02.163Z,4.38
2019-03-23T01:18:08.529Z,4.35
2019-03-23T01:20:15.725Z,4.33
2019-03-23T01:22:22.077Z,4.31
2019-03-23T01:24:28.844Z,4.29
2019-03-23T01:26:35.209Z,4.27
2019-03-23T01:28:43.197Z,4.24
2019-03-23T01:30:51.395Z,4.20
2019-03-23T01:32:57.983Z,4.20
2019-03-23T01:35:05.375Z,4.23
2019-03-23T01:37:11.741Z,4.28
2019-03-23T01:39:18.183Z,4.35
2019-03-23T01:41:24.881Z,4.37
2019-03-23T01:43:31.321Z,4.36
2019-03-23T01:45:37.697Z,4.38
2019-03-23T01:47:44.059Z,4.34
2019-03-23T01:49:51.633Z,4.30
2019-03-23T01:51:58.285Z,4.25
2019-03-23T01:54:04.883Z,4.22
2019-03-23T01:56:11.553Z,4.17
2019-03-23T01:58:18.226Z,4.11
2019-03-23T02:00:24.667Z,4.08
2019-03-23T02:02:31.368Z,4.06
2019-03-23T02:04:37.731Z,4.03
2019-03-23T02:06:44.276Z,4.00
2019-03-23T02:08:50.648Z,3.97
2019-03-23T02:10:58.852Z,3.97
2019-03-23T02:13:05.530Z,3.98
2019-03-23T02:15:14.079Z,3.97
2019-03-23T02:17:20.412Z,3.97
2019-03-23T02:19:27.072Z,3.99
2019-03-23T02:21:35.177Z,3.99
2019-03-23T02:23:43.382Z,4.02
2019-03-23T02:25:49.834Z,4.03
2019-03-23T02:27:56.411Z,4.07
2019-03-23T02:30:02.978Z,4.08
2019-03-23T02:32:09.395Z,4.10
2019-03-23T02:34:16.611Z,4.15
2019-03-23T02:36:23.006Z,4.19
2019-03-23T02:38:29.363Z,4.25
2019-03-23T02:40:35.704Z,4.28
2019-03-23T02:42:42.286Z,4.25
2019-03-23T02:44:50.600Z,4.24
2019-03-23T02:46:57.055Z,4.24
2019-03-23T02:49:03.625Z,4.22
2019-03-23T02:51:11.045Z,4.22
2019-03-23T02:53:17.452Z,4.19
2019-03-23T02:55:24.363Z,4.16
2019-03-23T02:57:30.814Z,4.08
2019-03-23T02:59:37.697Z,4.00
2019-03-23T03:01:44.054Z,4.01
2019-03-23T03:03:50.574Z,4.01
2019-03-23T03:05:58.411Z,3.93
2019-03-23T03:08:05.005Z,3.88
2019-03-23T03:10:14.889Z,3.88
2019-03-23T03:12:21.497Z,3.79
2019-03-23T03:14:28.367Z,3.77
2019-03-23T03:16:35.052Z,3.77
2019-03-23T03:18:41.559Z,3.77
2019-03-23T03:20:47.965Z,3.74
2019-03-23T03:22:56.073Z,3.78
2019-03-23T03:25:02.445Z,3.77
2019-03-23T03:27:08.912Z,3.76
2019-03-23T03:29:15.560Z,3.81
2019-03-23T03:31:21.967Z,3.86
2019-03-23T03:33:28.417Z,3.85
2019-03-23T03:35:35.062Z,3.84
2019-03-23T03:37:55.380Z,3.86
2019-03-23T03:39:50.738Z,3.86
2019-03-23T03:41:57.574Z,3.87
2019-03-23T03:44:04.530Z,3.92
2019-03-23T03:46:11.361Z,3.89
2019-03-23T03:48:18.108Z,3.92
2019-03-23T03:50:26.157Z,3.96
2019-03-23T03:52:34.077Z,3.99
2019-03-23T03:54:40.904Z,4.01
2019-03-23T03:56:47.750Z,4.02
2019-03-23T03:58:54.823Z,3.96
2019-03-23T04:01:01.355Z,3.99
2019-03-23T04:03:07.735Z,3.95
2019-03-23T04:05:14.689Z,3.94
2019-03-23T04:07:21.566Z,3.96
2019-03-23T04:09:31.730Z,3.93
2019-03-23T04:11:38.464Z,3.88
2019-03-23T04:13:45.157Z,3.96
2019-03-23T04:15:52.036Z,4.01
2019-03-23T04:17:58.914Z,3.98
2019-03-23T04:20:08.175Z,3.96
2019-03-23T04:22:14.999Z,3.94
2019-03-23T04:24:21.460Z,3.96
2019-03-23T04:26:28.137Z,3.99
2019-03-23T04:28:34.680Z,3.94
2019-03-23T04:30:43.123Z,3.91
2019-03-23T04:32:49.896Z,3.87
2019-03-23T04:34:56.770Z,3.91
2019-03-23T04:37:03.365Z,3.91
2019-03-23T04:39:10.214Z,3.83
2019-03-23T04:41:16.589Z,3.78
2019-03-23T04:43:25.796Z,3.76
2019-03-23T04:45:32.163Z,3.71
2019-03-23T04:47:39.337Z,3.64
2019-03-23T04:49:45.708Z,3.62
2019-03-23T04:54:00.279Z,3.54
2019-03-23T04:56:07.255Z,3.59
2019-03-23T04:58:13.927Z,3.55
2019-03-23T05:00:21.546Z,3.55
2019-03-23T05:02:28.837Z,3.53
2019-03-23T05:04:35.479Z,3.52
2019-03-23T05:06:42.634Z,3.54
2019-03-23T05:08:49.217Z,3.60
2019-03-23T05:10:55.672Z,3.66
2019-03-23T05:13:03.738Z,3.67
2019-03-23T05:15:11.376Z,3.68
2019-03-23T05:17:18.034Z,3.68
2019-03-23T05:19:24.625Z,3.62
2019-03-23T05:21:31.282Z,3.65
2019-03-23T05:23:39.693Z,3.77
2019-03-23T05:25:46.255Z,3.69
2019-03-23T05:27:52.624Z,3.68
2019-03-23T05:29:59.277Z,3.65
2019-03-23T05:32:06.887Z,3.74
2019-03-23T05:34:13.557Z,3.75
2019-03-23T05:36:20.019Z,3.83
2019-03-23T05:38:26.786Z,3.91
2019-03-23T05:40:33.133Z,3.98
2019-03-23T05:42:39.628Z,4.05
2019-03-23T05:44:46.189Z,4.17
2019-03-23T05:46:54.346Z,4.16
2019-03-23T05:49:00.740Z,4.19
2019-03-23T05:51:08.657Z,4.21
2019-03-23T05:53:15.194Z,4.29
2019-03-23T05:55:22.198Z,4.39
2019-03-23T05:57:28.975Z,4.48
2019-03-23T05:59:35.621Z,4.59
2019-03-23T06:01:42.030Z,4.61
2019-03-23T06:03:49.572Z,4.65
2019-03-23T06:05:57.183Z,4.70
2019-03-23T06:08:03.547Z,4.72
2019-03-23T06:10:10.330Z,4.69
2019-03-23T06:12:18.417Z,4.83
2019-03-23T06:14:24.851Z,4.87
2019-03-23T06:16:33.499Z,4.89
2019-03-23T06:18:39.874Z,4.83
2019-03-23T06:20:46.504Z,4.94
2019-03-23T06:22:54.333Z,5.02
2019-03-23T06:25:01.131Z,5.12
2019-03-23T06:27:08.065Z,5.16
2019-03-23T06:29:14.765Z,5.18
2019-03-23T06:31:22.369Z,5.59
2019-03-23T06:33:28.971Z,5.47
2019-03-23T06:35:35.238Z,5.78
2019-03-23T06:37:41.941Z,5.99
2019-03-23T06:39:48.498Z,6.21
2019-03-23T06:41:55.068Z,6.22
2019-03-23T06:44:01.833Z,6.19
2019-03-23T06:46:09.828Z,6.50
2019-03-23T06:48:16.508Z,6.37
2019-03-23T06:50:22.978Z,6.33
2019-03-23T06:52:31.007Z,6.29
2019-03-23T06:54:37.787Z,6.48
2019-03-23T06:56:44.425Z,6.86
2019-03-23T06:58:52.648Z,6.88
2019-03-23T07:00:59.607Z,7.17
2019-03-23T07:03:06.702Z,7.11
2019-03-23T07:05:13.876Z,7.11
2019-03-23T07:07:21.779Z,7.34
2019-03-23T07:09:28.434Z,7.32
2019-03-23T07:11:35.001Z,7.54
2019-03-23T07:13:42.606Z,7.60
2019-03-23T07:15:49.356Z,7.60
2019-03-23T07:17:55.934Z,7.63
2019-03-23T07:20:04.232Z,7.73
2019-03-23T07:22:11.725Z,7.85
2019-03-23T07:24:18.303Z,7.99
2019-03-23T07:26:24.852Z,8.05
2019-03-23T07:28:31.543Z,7.96
2019-03-23T07:30:39.943Z,8.09
2019-03-23T07:32:48.874Z,8.45
2019-03-23T07:34:55.542Z,8.35
2019-03-23T07:37:03.447Z,8.53
2019-03-23T07:39:27.305Z,8.42
2019-03-23T07:41:29.986Z,8.44
2019-03-23T07:43:36.763Z,8.32
2019-03-23T07:45:43.339Z,8.54
2019-03-23T07:47:50.203Z,8.74
2019-03-23T07:49:56.680Z,8.85
2019-03-23T07:52:03.431Z,8.95
2019-03-23T07:54:09.804Z,9.11
2019-03-23T07:56:17.803Z,9.31
2019-03-23T07:58:24.574Z,9.27
2019-03-23T08:00:33.195Z,9.26
2019-03-23T08:02:40.163Z,9.36
2019-03-23T08:04:48.575Z,9.26
2019-03-23T08:06:57.203Z,9.33
2019-03-23T08:09:19.951Z,9.27
2019-03-23T08:11:18.513Z,9.18
2019-03-23T08:13:25.525Z,9.23
2019-03-23T08:15:32.269Z,9.27
2019-03-23T08:17:39.863Z,9.38
2019-03-23T08:19:46.409Z,9.31
2019-03-23T08:21:55.155Z,9.20
2019-03-23T08:24:01.606Z,9.05
2019-03-23T08:26:08.335Z,9.01
2019-03-23T08:28:14.737Z,9.06
2019-03-23T08:30:23.146Z,9.07
2019-03-23T08:32:30.583Z,9.15
2019-03-23T08:34:37.105Z,9.32
2019-03-23T08:36:44.136Z,9.26
2019-03-23T08:38:53.298Z,9.27
2019-03-23T08:41:07.622Z,9.39
2019-03-23T08:43:23.884Z,9.47
2019-03-23T08:48:01.263Z,9.73
2019-03-23T08:50:11.105Z,9.82
2019-03-23T08:52:19.924Z,9.69
2019-03-23T08:54:29.482Z,9.89
2019-03-23T08:56:37.463Z,10.06
2019-03-23T08:58:42.728Z,10.05
2019-03-23T09:00:49.261Z,10.08
2019-03-23T09:02:55.947Z,10.19
2019-03-23T09:05:02.819Z,10.22
2019-03-23T09:07:10.301Z,10.33
2019-03-23T09:09:17.071Z,10.59
2019-03-23T09:11:24.137Z,10.66
2019-03-23T09:13:40.272Z,10.57
2019-03-23T09:15:39.128Z,10.84
2019-03-23T09:17:45.496Z,10.95
2019-03-23T09:19:52.076Z,10.66
2019-03-23T09:21:58.583Z,10.86
2019-03-23T09:24:05.354Z,11.13
2019-03-23T09:26:13.779Z,11.13
2019-03-23T09:28:20.176Z,11.17
2019-03-23T09:30:27.254Z,11.22
2019-03-23T09:32:33.814Z,11.25
2019-03-23T09:34:41.500Z,11.53
2019-03-23T09:36:48.188Z,11.80
2019-03-23T09:38:54.640Z,12.09
2019-03-23T09:41:02.841Z,12.18
2019-03-23T09:43:09.421Z,12.07
2019-03-23T09:45:16.190Z,12.32
2019-03-23T09:47:23.580Z,12.31
2019-03-23T09:49:30.252Z,12.35
2019-03-23T09:51:37.039Z,12.14
2019-03-23T09:53:43.681Z,12.02
2019-03-23T09:55:50.457Z,12.08
2019-03-23T09:57:57.038Z,12.11
2019-03-23T10:00:04.822Z,12.15
2019-03-23T10:02:11.811Z,12.17
2019-03-23T10:04:19.492Z,12.34
2019-03-23T10:06:26.062Z,12.55
2019-03-23T10:08:32.701Z,12.59
2019-03-23T10:10:39.412Z,12.85
2019-03-23T10:12:46.091Z,12.97
2019-03-23T10:14:52.961Z,13.11
2019-03-23T10:16:59.504Z,13.19
2019-03-23T10:19:08.003Z,13.33
2019-03-23T10:21:14.397Z,13.37
2019-03-23T10:23:20.967Z,13.40
2019-03-23T10:25:27.660Z,13.41
2019-03-23T10:27:34.507Z,13.56
2019-03-23T10:29:42.381Z,13.49
2019-03-23T10:31:48.957Z,13.55
2019-03-23T10:33:55.531Z,13.68
2019-03-23T10:36:02.401Z,13.76
2019-03-23T10:38:08.761Z,13.85
2019-03-23T10:40:15.862Z,13.96
2019-03-23T10:42:22.510Z,14.01
2019-03-23T10:44:29.383Z,14.00
2019-03-23T10:46:37.092Z,14.09
2019-03-23T10:48:43.647Z,14.13
2019-03-23T10:50:50.421Z,14.19
2019-03-23T10:52:56.800Z,14.15
2019-03-23T10:55:03.452Z,14.28
2019-03-23T10:57:09.821Z,14.32
2019-03-23T10:59:16.391Z,14.27
2019-03-23T11:01:23.365Z,14.32
2019-03-23T11:03:29.808Z,14.33
2019-03-23T11:05:36.407Z,14.41
2019-03-23T11:07:44.525Z,14.56
2019-03-23T11:09:51.074Z,14.61
2019-03-23T11:11:58.052Z,14.66
2019-03-23T11:14:04.411Z,14.79
2019-03-23T11:16:11.281Z,14.87
2019-03-23T11:18:17.630Z,14.95
2019-03-23T11:20:24.014Z,15.03
2019-03-23T11:22:32.109Z,15.18
2019-03-23T11:24:38.591Z,15.22
2019-03-23T11:26:46.871Z,15.27
2019-03-23T11:28:53.250Z,15.29
2019-03-23T11:31:01.029Z,15.33
2019-03-23T11:33:09.401Z,15.41
2019-03-23T11:35:16.059Z,15.49
2019-03-23T11:37:22.797Z,15.49
2019-03-23T11:39:29.161Z,15.49
2019-03-23T11:41:36.653Z,15.63
2019-03-23T11:43:43.837Z,15.78
2019-03-23T11:45:50.511Z,15.79
2019-03-23T11:47:56.870Z,15.90
2019-03-23T11:50:03.931Z,16.06
2019-03-23T11:52:11.332Z,16.10
2019-03-23T11:54:22.597Z,16.10
2019-03-23T11:56:30.474Z,16.18
2019-03-23T11:58:37.990Z,16.15
2019-03-23T12:00:45.796Z,16.19
2019-03-23T12:02:54.714Z,16.20
2019-03-23T12:05:03.122Z,16.25
2019-03-23T12:07:10.106Z,16.25
2019-03-23T12:09:16.878Z,16.36
2019-03-23T12:11:23.839Z,16.45
2019-03-23T12:13:30.730Z,16.51
2019-03-23T12:15:38.111Z,16.53
2019-03-23T12:17:46.060Z,16.54
2019-03-23T12:19:52.462Z,16.62
2019-03-23T12:21:59.450Z,16.61
2019-03-23T12:24:06.471Z,16.46
2019-03-23T12:26:13.297Z,16.57
2019-03-23T12:28:20.153Z,16.65
2019-03-23T12:30:28.180Z,16.71
2019-03-23T12:32:34.657Z,16.75
2019-03-23T12:34:42.877Z,16.83
2019-03-23T12:36:49.392Z,16.97
2019-03-23T12:38:55.988Z,17.12
2019-03-23T12:41:14.304Z,17.18
2019-03-23T12:43:12.091Z,17.19
2019-03-23T12:45:20.097Z,17.27
2019-03-23T12:47:27.571Z,17.35
2019-03-23T12:49:34.252Z,17.37
2019-03-23T12:51:40.807Z,17.37
2019-03-23T12:53:47.299Z,17.36
2019-03-23T12:55:55.780Z,17.44
2019-03-23T12:58:03.898Z,17.40
2019-03-23T13:00:17.317Z,17.45
2019-03-23T13:02:24.302Z,17.43
2019-03-23T13:04:32.400Z,17.49
2019-03-23T13:06:39.070Z,17.51
2019-03-23T13:08:46.042Z,17.47
2019-03-23T13:10:52.607Z,17.49
2019-03-23T13:12:59.413Z,17.50
2019-03-23T13:15:09.548Z,17.45
2019-03-23T13:17:16.217Z,17.47
2019-03-23T13:19:23.500Z,17.53
2019-03-23T13:21:30.008Z,17.56
2019-03-23T13:23:36.648Z,17.51
2019-03-23T13:25:43.259Z,17.52
2019-03-23T13:27:51.354Z,17.56
2019-03-23T13:29:58.388Z,17.56
2019-03-23T13:32:04.951Z,17.58
2019-03-23T13:34:11.827Z,17.56
2019-03-23T13:36:20.140Z,17.62
2019-03-23T13:38:28.538Z,17.65
2019-03-23T13:40:35.498Z,17.70
2019-03-23T13:42:42.298Z,17.70
2019-03-23T13:44:48.960Z,17.75
2019-03-23T13:46:55.426Z,17.75
2019-03-23T13:49:01.894Z,17.75
2019-03-23T13:51:09.207Z,17.76
2019-03-23T13:53:16.262Z,17.83
2019-03-23T13:55:34.865Z,17.92
2019-03-23T13:57:41.686Z,17.94
2019-03-23T13:59:49.676Z,17.97
2019-03-23T14:01:57.886Z,17.98
2019-03-23T14:04:04.453Z,17.97
2019-03-23T14:06:11.641Z,17.95
2019-03-23T14:08:18.195Z,17.95
2019-03-23T14:10:27.971Z,17.96
2019-03-23T14:12:34.213Z,17.99
2019-03-23T14:14:41.171Z,18.01
2019-03-23T14:16:49.495Z,18.00
2019-03-23T14:18:56.462Z,18.01
2019-03-23T14:21:04.377Z,18.10
2019-03-23T14:23:11.453Z,18.19
2019-03-23T14:25:18.214Z,18.22
2019-03-23T14:27:25.099Z,18.19
2019-03-23T14:29:31.556Z,18.20
2019-03-23T14:31:39.440Z,18.18
2019-03-23T14:33:46.312Z,18.18
2019-03-23T14:35:55.968Z,18.19
2019-03-23T14:38:02.428Z,18.19
2019-03-23T14:40:12.307Z,18.20
2019-03-23T14:42:18.834Z,18.17
2019-03-23T14:44:25.606Z,18.16
2019-03-23T14:46:32.689Z,18.20
2019-03-23T14:48:39.476Z,18.17
2019-03-23T14:50:46.552Z,18.17
2019-03-23T14:52:53.238Z,18.16
2019-03-23T14:54:59.945Z,18.19
2019-03-23T14:57:06.744Z,18.23
2019-03-23T14:59:13.706Z,18.28
2019-03-23T15:01:20.743Z,18.31
2019-03-23T15:03:28.852Z,18.31
2019-03-23T15:05:36.131Z,18.33
2019-03-23T15:07:43.500Z,18.31
2019-03-23T15:09:50.421Z,18.30
2019-03-23T15:11:58.161Z,18.32
2019-03-23T15:14:05.003Z,18.36
2019-03-23T15:16:12.147Z,18.35
2019-03-23T15:18:19.067Z,18.35
2019-03-23T15:20:25.907Z,18.34
2019-03-23T15:22:33.154Z,18.37
2019-03-23T15:24:39.730Z,18.36
2019-03-23T15:26:46.956Z,18.36
2019-03-23T15:28:53.690Z,18.34
2019-03-23T15:31:00.439Z,18.32
2019-03-23T15:33:09.074Z,18.33
2019-03-23T15:35:15.947Z,18.33
2019-03-23T15:37:22.707Z,18.33
2019-03-23T15:39:29.383Z,18.35
2019-03-23T15:41:36.213Z,18.33
2019-03-23T15:43:43.236Z,18.32
2019-03-23T15:45:49.991Z,18.27
2019-03-23T15:47:56.798Z,18.23
2019-03-23T15:50:03.700Z,18.15
2019-03-23T15:52:10.789Z,18.06
2019-03-23T15:54:20.130Z,18.00
2019-03-23T15:56:27.238Z,17.93
2019-03-23T15:58:33.877Z,17.90
2019-03-23T16:00:40.813Z,17.85
2019-03-23T16:02:51.025Z,17.83
2019-03-23T16:04:58.134Z,17.79
2019-03-23T16:07:04.848Z,17.71
2019-03-23T16:09:16.640Z,17.63
2019-03-23T16:11:23.948Z,17.52
2019-03-23T16:13:31.050Z,17.43
2019-03-23T16:15:40.867Z,17.37
2019-03-23T16:17:48.068Z,17.30
2019-03-23T16:19:54.969Z,17.24
2019-03-23T16:22:02.174Z,17.19
2019-03-23T16:24:09.866Z,17.17
2019-03-23T16:26:18.190Z,17.14
2019-03-23T16:28:25.014Z,17.09
2019-03-23T16:30:34.372Z,17.08
2019-03-23T16:32:41.351Z,17.01
2019-03-23T16:34:48.262Z,16.94
2019-03-23T16:36:56.983Z,16.87
2019-03-23T16:39:06.529Z,16.79
2019-03-23T16:41:13.726Z,16.72
2019-03-23T16:43:21.023Z,16.66
2019-03-23T16:45:29.162Z,16.60
2019-03-23T16:47:37.304Z,16.58
2019-03-23T16:49:44.423Z,16.54
2019-03-23T16:51:51.683Z,16.46
2019-03-23T16:53:58.845Z,16.31
2019-03-23T16:56:05.837Z,16.20
2019-03-23T16:58:16.269Z,16.06
2019-03-23T17:00:26.035Z,15.95
2019-03-23T17:02:33.518Z,15.81
2019-03-23T17:04:40.921Z,15.71
2019-03-23T17:06:48.391Z,15.69
2019-03-23T17:08:55.424Z,15.70
2019-03-23T17:11:02.404Z,15.74
2019-03-23T17:13:09.897Z,15.77
2019-03-23T17:15:17.186Z,15.81
2019-03-23T17:17:23.991Z,15.82
2019-03-23T17:19:31.008Z,15.82
2019-03-23T17:21:39.452Z,15.87
2019-03-23T17:23:46.719Z,15.98
2019-03-23T17:25:54.221Z,16.15
2019-03-23T17:28:01.262Z,15.90
2019-03-23T17:30:10.170Z,15.58
2019-03-23T17:32:17.305Z,15.32
2019-03-23T17:34:24.636Z,15.15
2019-03-23T17:36:33.526Z,14.99
2019-03-23T17:38:40.390Z,14.87
2019-03-23T17:40:47.963Z,14.74
2019-03-23T17:43:05.374Z,14.64
2019-03-23T17:45:06.709Z,14.56
2019-03-23T17:47:14.553Z,14.46
2019-03-23T17:49:21.724Z,14.36
2019-03-23T17:51:28.874Z,14.25
2019-03-23T17:53:37.432Z,14.13
2019-03-23T17:55:44.634Z,14.03
2019-03-23T17:57:51.975Z,13.90
2019-03-23T17:59:58.893Z,13.77
2019-03-23T18:02:06.143Z,13.65
2019-03-23T18:04:14.035Z,13.50
2019-03-23T18:06:21.211Z,13.36
2019-03-23T18:08:28.326Z,13.22
2019-03-23T18:10:35.724Z,13.06
2019-03-23T18:12:42.704Z,12.94
2019-03-23T18:14:49.623Z,12.81
2019-03-23T18:16:56.642Z,12.63
2019-03-23T18:19:03.773Z,12.49
2019-03-23T18:21:10.661Z,12.36
2019-03-23T18:23:18.924Z,12.22
2019-03-23T18:25:26.434Z,12.09
2019-03-23T18:27:33.974Z,11.98
2019-03-23T18:29:40.904Z,11.85
2019-03-23T18:31:48.054Z,11.74
2019-03-23T18:33:55.409Z,11.67
2019-03-23T18:36:03.323Z,11.56
2019-03-23T18:38:10.691Z,11.52
2019-03-23T18:40:18.105Z,11.44
2019-03-23T18:42:25.193Z,11.34
2019-03-23T18:44:32.341Z,11.25
2019-03-23T18:46:39.996Z,11.15
2019-03-23T18:48:48.073Z,11.06
2019-03-23T18:50:55.419Z,10.98
2019-03-23T18:53:05.040Z,10.91
2019-03-23T18:55:12.189Z,10.86
2019-03-23T18:57:19.417Z,10.78
2019-03-23T18:59:27.253Z,10.71
2019-03-23T19:01:34.168Z,10.63
2019-03-23T19:03:41.473Z,10.55
2019-03-23T19:05:48.529Z,10.47
2019-03-23T19:07:55.562Z,10.42
2019-03-23T19:10:02.910Z,10.34
2019-03-23T19:12:10.104Z,10.28
2019-03-23T19:14:17.001Z,10.22
2019-03-23T19:16:24.045Z,10.16
2019-03-23T19:18:31.441Z,10.08
2019-03-23T19:20:39.274Z,10.06
2019-03-23T19:22:45.980Z,10.00
2019-03-23T19:25:01.545Z,9.98
2019-03-23T19:27:08.639Z,9.92
2019-03-23T19:29:16.891Z,9.88
2019-03-23T19:31:25.268Z,9.82
2019-03-23T19:33:32.643Z,9.75
2019-03-23T19:35:39.894Z,9.68
2019-03-23T19:37:46.721Z,9.60
2019-03-23T19:39:53.642Z,9.57
2019-03-23T19:42:00.537Z,9.50
2019-03-23T19:44:09.681Z,9.48
2019-03-23T19:46:16.833Z,9.46
2019-03-23T19:48:23.747Z,9.48
2019-03-23T19:50:30.543Z,9.47
2019-03-23T19:52:38.356Z,9.41
2019-03-23T19:54:46.253Z,9.33
2019-03-23T19:56:53.004Z,9.27
2019-03-23T19:59:00.001Z,9.23
2019-03-23T20:01:07.442Z,9.15
2019-03-23T20:03:14.771Z,9.10
2019-03-23T20:05:23.411Z,9.07
2019-03-23T20:07:33.437Z,9.00
2019-03-23T20:09:42.410Z,8.95
2019-03-23T20:11:52.434Z,8.91
2019-03-23T20:14:03.033Z,8.92
2019-03-23T20:16:10.193Z,8.89
2019-03-23T20:18:17.972Z,8.88
2019-03-23T20:20:26.392Z,8.85
2019-03-23T20:22:34.492Z,8.78
2019-03-23T20:24:43.662Z,8.75
2019-03-23T20:26:51.248Z,8.66
2019-03-23T20:28:59.434Z,8.59
2019-03-23T20:31:06.703Z,8.54
2019-03-23T20:33:19.400Z,8.49
2019-03-23T20:35:46.512Z,8.41
2019-03-23T20:37:56.323Z,8.34
2019-03-23T20:40:06.824Z,8.29
2019-03-23T20:42:14.277Z,8.23
2019-03-23T20:44:22.446Z,8.18
2019-03-23T20:46:29.398Z,8.13
2019-03-23T20:48:38.392Z,8.08
2019-03-23T20:50:45.888Z,7.99
2019-03-23T20:52:53.571Z,7.94
2019-03-23T20:55:00.492Z,7.88
2019-03-23T20:57:07.594Z,7.86
2019-03-23T20:59:14.594Z,7.85
2019-03-23T21:01:21.651Z,7.82
2019-03-23T21:03:28.207Z,7.81
2019-03-23T21:05:35.590Z,7.75
2019-03-23T21:07:42.811Z,7.69
2019-03-23T21:09:49.672Z,7.63
2019-03-23T21:11:56.532Z,7.58
2019-03-23T21:14:04.113Z,7.55
2019-03-23T21:16:12.070Z,7.55
2019-03-23T21:18:19.300Z,7.53
2019-03-23T21:20:26.471Z,7.51
2019-03-23T21:22:34.727Z,7.47
2019-03-23T21:24:41.689Z,7.40
2019-03-23T21:26:48.634Z,7.34
2019-03-23T21:28:55.468Z,7.29
2019-03-23T21:31:05.175Z,7.28
2019-03-23T21:33:13.955Z,7.27
2019-03-23T21:35:21.031Z,7.28
2019-03-23T21:37:28.118Z,7.29
2019-03-23T21:39:35.932Z,7.27
2019-03-23T21:41:43.051Z,7.24
2019-03-23T21:43:50.632Z,7.21
2019-03-23T21:45:58.470Z,7.17
2019-03-23T21:48:05.626Z,7.11
2019-03-23T21:50:13.314Z,7.07
2019-03-23T21:52:20.971Z,7.04
2019-03-23T21:54:28.112Z,6.98
2019-03-23T21:56:35.093Z,6.91
2019-03-23T21:58:43.732Z,6.84
2019-03-23T22:00:50.952Z,6.80
2019-03-23T22:03:00.052Z,6.73
2019-03-23T22:05:09.831Z,6.65
2019-03-23T22:07:18.111Z,6.61
2019-03-23T22:09:25.051Z,6.58
2019-03-23T22:11:32.111Z,6.53
2019-03-23T22:13:38.854Z,6.47
2019-03-23T22:15:47.406Z,6.44
2019-03-23T22:17:55.000Z,6.40
2019-03-23T22:20:01.921Z,6.37
2019-03-23T22:22:08.936Z,6.32
2019-03-23T22:24:15.697Z,6.27
2019-03-23T22:26:22.052Z,6.23
2019-03-23T22:28:28.988Z,6.19
2019-03-23T22:30:35.269Z,6.12
2019-03-23T22:32:42.241Z,6.04
2019-03-23T22:34:49.422Z,6.01
2019-03-23T22:36:58.536Z,5.95
2019-03-23T22:39:07.189Z,5.93
2019-03-23T22:41:15.194Z,5.90
2019-03-23T22:43:25.801Z,5.93
2019-03-23T22:45:35.862Z,5.88
2019-03-23T22:47:43.692Z,5.84
2019-03-23T22:49:50.323Z,5.81
2019-03-23T22:51:56.791Z,5.79
2019-03-23T22:54:03.898Z,5.75
2019-03-23T22:56:10.776Z,5.72
2019-03-23T22:58:19.489Z,5.69
2019-03-23T23:00:27.668Z,5.69
2019-03-23T23:02:35.959Z,5.65
2019-03-23T23:04:42.561Z,5.65
2019-03-23T23:06:49.228Z,5.64
2019-03-23T23:08:55.603Z,5.68
2019-03-23T23:11:02.252Z,5.66
2019-03-23T23:13:10.439Z,5.65
2019-03-23T23:15:17.140Z,5.66
2019-03-23T23:17:24.111Z,5.63
2019-03-23T23:19:30.472Z,5.61
2019-03-23T23:21:38.381Z,5.56
2019-03-23T23:23:44.841Z,5.52
2019-03-23T23:25:51.701Z,5.47
2019-03-23T23:27:58.795Z,5.44
2019-03-23T23:30:08.536Z,5.40
2019-03-23T23:32:15.411Z,5.39
2019-03-23T23:34:22.819Z,5.37
2019-03-23T23:36:35.461Z,5.35
2019-03-23T23:38:43.921Z,5.32
2019-03-23T23:40:50.704Z,5.27
2019-03-23T23:42:57.271Z,5.24
2019-03-23T23:45:14.842Z,5.19
2019-03-23T23:47:17.448Z,5.18
2019-03-23T23:49:25.059Z,5.18
2019-03-23T23:51:32.849Z,5.16
2019-03-23T23:53:39.608Z,5.17
2019-03-23T23:55:45.991Z,5.19
2019-03-23T23:57:53.782Z,5.20
